DAH220 DAAG-EDDF
Flight info
| Callsign | DAH220 |
|---|---|
| Flight time | 2h 7m |
| Altitude | 38000 |
| Route | OTARO1C OTARO DCT RISEP DCT LUNOR DCT ZETCO DCT LERMA DCT PIGOS DCT EKSID DCT NOSTA DCT NOPMU DCT ABESI DCT LADOL T163 EMPAX EMPAX5B |
| Aircraft | B736/M-SDE2E3FGHIRWXY/LB1 |
Departure
| Time | 2026-05-04 15:58 |
|---|---|
| Airport | Houari Boumediene Airport (DAAG) |
Arrival
| Time | 2026-05-04 18:05 |
|---|---|
| Airport | Frankfurt Main Airport (EDDF) |
| Time | Latitude | Longitude | Altitude | Speed | Heading |
|---|---|---|---|---|---|
| 2026-05-04 15:34 | 36.69715 | 3.20278 | 69 ft | 0 kts | 271° |
| 2026-05-04 15:47 | 36.69715 | 3.20282 | 69 ft | 2 kts | 271° |
| 2026-05-04 15:47 | 36.69715 | 3.20299 | 59 ft | 2 kts | 269° |
| 2026-05-04 15:48 | 36.69715 | 3.20316 | 64 ft | 2 kts | 266° |
| 2026-05-04 15:48 | 36.69716 | 3.20332 | 63 ft | 2 kts | 261° |
| 2026-05-04 15:48 | 36.69721 | 3.20353 | 59 ft | 1 kts | 231° |
| 2026-05-04 15:49 | 36.69726 | 3.20359 | 59 ft | 1 kts | 206° |
| 2026-05-04 15:49 | 36.69731 | 3.20362 | 59 ft | 1 kts | 185° |
| 2026-05-04 15:49 | 36.69737 | 3.20362 | 59 ft | 1 kts | 173° |
| 2026-05-04 15:49 | 36.69743 | 3.20361 | 60 ft | 1 kts | 167° |
| 2026-05-04 15:50 | 36.69748 | 3.20359 | 61 ft | 1 kts | 165° |
| 2026-05-04 15:50 | 36.69754 | 3.20357 | 62 ft | 1 kts | 163° |
| 2026-05-04 15:53 | 36.69739 | 3.20362 | 66 ft | 4 kts | 166° |
| 2026-05-04 15:53 | 36.69692 | 3.20370 | 67 ft | 9 kts | 177° |
| 2026-05-04 15:53 | 36.69615 | 3.20370 | 69 ft | 12 kts | 180° |
| 2026-05-04 15:54 | 36.69517 | 3.20365 | 69 ft | 15 kts | 181° |
| 2026-05-04 15:54 | 36.69445 | 3.20428 | 65 ft | 15 kts | 94° |
| 2026-05-04 15:54 | 36.69441 | 3.20562 | 69 ft | 15 kts | 92° |
| 2026-05-04 15:54 | 36.69438 | 3.20691 | 69 ft | 15 kts | 91° |
| 2026-05-04 15:55 | 36.69436 | 3.20813 | 69 ft | 14 kts | 94° |
| 2026-05-04 15:55 | 36.69372 | 3.20891 | 69 ft | 13 kts | 161° |
| 2026-05-04 15:55 | 36.69291 | 3.20932 | 61 ft | 13 kts | 121° |
| 2026-05-04 15:55 | 36.69279 | 3.21042 | 67 ft | 13 kts | 91° |
| 2026-05-04 15:56 | 36.69278 | 3.21155 | 69 ft | 14 kts | 92° |
| 2026-05-04 15:56 | 36.69284 | 3.21288 | 69 ft | 17 kts | 68° |
| 2026-05-04 15:56 | 36.69358 | 3.21417 | 66 ft | 19 kts | 53° |
| 2026-05-04 15:56 | 36.69383 | 3.21586 | 69 ft | 21 kts | 90° |
| 2026-05-04 15:57 | 36.69382 | 3.21780 | 70 ft | 23 kts | 90° |
| 2026-05-04 15:57 | 36.69381 | 3.21974 | 75 ft | 22 kts | 88° |
| 2026-05-04 15:57 | 36.69445 | 3.22116 | 74 ft | 20 kts | 52° |
| 2026-05-04 15:57 | 36.69655 | 3.22462 | 75 ft | 84 kts | 52° |
| 2026-05-04 15:58 | 36.70132 | 3.23225 | 108 ft | 135 kts | 51° |
| 2026-05-04 15:58 | 36.70730 | 3.24210 | 557 ft | 144 kts | 53° |
| 2026-05-04 15:58 | 36.71336 | 3.25231 | 1143 ft | 146 kts | 46° |
| 2026-05-04 15:58 | 36.72153 | 3.25934 | 1692 ft | 150 kts | 15° |
| 2026-05-04 15:59 | 36.73241 | 3.25991 | 2216 ft | 166 kts | 353° |
| 2026-05-04 15:59 | 36.74494 | 3.25726 | 2499 ft | 199 kts | 349° |
| 2026-05-04 15:59 | 36.75958 | 3.25367 | 2743 ft | 227 kts | 348° |
| 2026-05-04 15:59 | 36.77602 | 3.24955 | 2953 ft | 254 kts | 349° |
| 2026-05-04 16:00 | 36.79432 | 3.25044 | 3395 ft | 274 kts | 15° |
| 2026-05-04 16:00 | 36.81262 | 3.25807 | 4237 ft | 278 kts | 19° |
| 2026-05-04 16:00 | 36.83091 | 3.26625 | 5062 ft | 285 kts | 19° |
| 2026-05-04 16:00 | 36.84990 | 3.27472 | 5904 ft | 291 kts | 19° |
| 2026-05-04 16:01 | 36.86903 | 3.28312 | 6730 ft | 297 kts | 18° |
| 2026-05-04 16:01 | 36.88871 | 3.29165 | 7600 ft | 300 kts | 16° |
| 2026-05-04 16:01 | 36.90862 | 3.30019 | 8437 ft | 304 kts | 15° |
| 2026-05-04 16:01 | 36.92891 | 3.30882 | 9319 ft | 308 kts | 14° |
| 2026-05-04 16:02 | 36.94914 | 3.31740 | 10124 ft | 313 kts | 13° |
| 2026-05-04 16:02 | 36.97039 | 3.32635 | 10546 ft | 333 kts | 13° |
| 2026-05-04 16:02 | 37.01695 | 3.34594 | 11346 ft | 367 kts | 14° |
| 2026-05-04 16:03 | 37.04137 | 3.35632 | 12114 ft | 371 kts | 14° |
| 2026-05-04 16:03 | 37.05774 | 3.36328 | 12630 ft | 374 kts | 14° |
| 2026-05-04 16:03 | 37.08271 | 3.37389 | 13415 ft | 380 kts | 14° |
| 2026-05-04 16:03 | 37.11629 | 3.38815 | 14377 ft | 386 kts | 13° |
| 2026-05-04 16:04 | 37.13333 | 3.39538 | 14885 ft | 389 kts | 13° |
| 2026-05-04 16:04 | 37.18493 | 3.41867 | 16409 ft | 400 kts | 20° |
| 2026-05-04 16:04 | 37.20968 | 3.43445 | 17080 ft | 407 kts | 25° |
| 2026-05-04 16:05 | 37.23463 | 3.45220 | 17870 ft | 411 kts | 26° |
| 2026-05-04 16:05 | 37.25930 | 3.47019 | 18590 ft | 415 kts | 26° |
| 2026-05-04 16:05 | 37.31006 | 3.50655 | 19935 ft | 421 kts | 25° |
| 2026-05-04 16:06 | 37.33556 | 3.52434 | 20583 ft | 425 kts | 25° |
| 2026-05-04 16:06 | 37.41437 | 3.57832 | 22524 ft | 435 kts | 24° |
| 2026-05-04 16:07 | 37.44115 | 3.59656 | 23152 ft | 438 kts | 24° |
| 2026-05-04 16:07 | 37.52257 | 3.65204 | 24779 ft | 449 kts | 25° |
| 2026-05-04 16:08 | 37.55028 | 3.67096 | 25277 ft | 453 kts | 25° |
| 2026-05-04 16:08 | 37.63457 | 3.72865 | 26727 ft | 465 kts | 25° |
| 2026-05-04 16:09 | 37.69159 | 3.76777 | 27636 ft | 472 kts | 25° |
| 2026-05-04 16:09 | 37.74957 | 3.80762 | 28535 ft | 479 kts | 25° |
| 2026-05-04 16:10 | 37.80873 | 3.84835 | 29380 ft | 487 kts | 25° |
| 2026-05-04 16:11 | 37.89876 | 3.91048 | 30572 ft | 495 kts | 25° |
| 2026-05-04 16:11 | 37.92913 | 3.93149 | 30936 ft | 497 kts | 25° |
| 2026-05-04 16:12 | 38.02026 | 3.99464 | 32293 ft | 495 kts | 25° |
| 2026-05-04 16:12 | 38.11030 | 4.05720 | 33581 ft | 493 kts | 25° |
| 2026-05-04 16:13 | 38.17055 | 4.09915 | 34371 ft | 491 kts | 25° |
| 2026-05-04 16:13 | 38.23014 | 4.14072 | 35060 ft | 489 kts | 25° |
| 2026-05-04 16:14 | 38.28949 | 4.18220 | 35710 ft | 487 kts | 25° |
| 2026-05-04 16:14 | 38.34897 | 4.22385 | 36358 ft | 485 kts | 24° |
| 2026-05-04 16:15 | 38.43763 | 4.28608 | 37262 ft | 483 kts | 24° |
| 2026-05-04 16:16 | 38.49600 | 4.32716 | 37950 ft | 479 kts | 24° |
| 2026-05-04 16:17 | 38.64307 | 4.43097 | 37970 ft | 478 kts | 24° |
| 2026-05-04 16:18 | 38.75879 | 4.51299 | 37980 ft | 475 kts | 24° |
| 2026-05-04 16:19 | 38.90313 | 4.61573 | 37983 ft | 475 kts | 24° |
| 2026-05-04 16:20 | 39.04431 | 4.70952 | 37987 ft | 472 kts | 16° |
| 2026-05-04 16:22 | 39.19813 | 4.78482 | 37976 ft | 475 kts | 16° |
| 2026-05-04 16:23 | 39.38314 | 4.87870 | 37969 ft | 477 kts | 17° |
| 2026-05-04 16:25 | 39.56832 | 4.97318 | 37957 ft | 477 kts | 17° |
| 2026-05-04 16:26 | 39.78416 | 5.08408 | 37963 ft | 476 kts | 17° |
| 2026-05-04 16:28 | 39.93783 | 5.16354 | 37963 ft | 475 kts | 17° |
| 2026-05-04 16:29 | 40.15272 | 5.27530 | 37955 ft | 475 kts | 18° |
| 2026-05-04 16:31 | 40.30632 | 5.35567 | 37956 ft | 475 kts | 18° |
| 2026-05-04 16:32 | 40.48605 | 5.46728 | 37957 ft | 479 kts | 26° |
| 2026-05-04 16:33 | 40.60243 | 5.55214 | 37961 ft | 478 kts | 25° |
| 2026-05-04 16:34 | 40.69006 | 5.61501 | 37958 ft | 478 kts | 25° |
| 2026-05-04 16:35 | 40.86514 | 5.74111 | 37958 ft | 479 kts | 25° |
| 2026-05-04 16:36 | 40.95311 | 5.80478 | 37956 ft | 479 kts | 25° |
| 2026-05-04 16:37 | 41.04063 | 5.86833 | 37955 ft | 479 kts | 25° |
| 2026-05-04 16:38 | 41.15730 | 5.95335 | 37960 ft | 479 kts | 25° |
| 2026-05-04 16:39 | 41.30325 | 6.06019 | 37968 ft | 480 kts | 26° |
| 2026-05-04 16:40 | 41.41989 | 6.14598 | 37956 ft | 479 kts | 26° |
| 2026-05-04 16:41 | 41.55569 | 6.24631 | 37966 ft | 477 kts | 26° |
| 2026-05-04 16:43 | 41.70072 | 6.35399 | 37972 ft | 476 kts | 26° |
| 2026-05-04 16:43 | 41.78749 | 6.41868 | 37974 ft | 475 kts | 26° |
| 2026-05-04 16:45 | 41.96041 | 6.54822 | 37985 ft | 475 kts | 26° |
| 2026-05-04 16:46 | 42.10449 | 6.65679 | 37994 ft | 476 kts | 26° |
| 2026-05-04 16:47 | 42.22574 | 6.72299 | 38004 ft | 467 kts | 9° |
| 2026-05-04 16:48 | 42.35165 | 6.76757 | 38001 ft | 469 kts | 10° |
| 2026-05-04 16:49 | 42.47759 | 6.81416 | 38007 ft | 470 kts | 10° |
| 2026-05-04 16:50 | 42.60348 | 6.86108 | 38012 ft | 470 kts | 10° |
| 2026-05-04 16:51 | 42.69815 | 6.89647 | 38015 ft | 469 kts | 10° |
| 2026-05-04 16:52 | 42.82381 | 6.94360 | 38016 ft | 468 kts | 10° |
| 2026-05-04 16:53 | 42.91809 | 6.97910 | 38018 ft | 467 kts | 9° |
| 2026-05-04 16:54 | 43.04306 | 7.02633 | 38017 ft | 466 kts | 9° |
| 2026-05-04 16:55 | 43.22738 | 7.11092 | 38023 ft | 473 kts | 21° |
| 2026-05-04 16:56 | 43.37173 | 7.20686 | 38027 ft | 475 kts | 20° |
| 2026-05-04 16:57 | 43.46109 | 7.26526 | 38045 ft | 473 kts | 20° |
| 2026-05-04 16:58 | 43.57952 | 7.34310 | 38039 ft | 472 kts | 22° |
| 2026-05-04 16:59 | 43.63309 | 7.39664 | 38057 ft | 481 kts | 41° |
| 2026-05-04 17:00 | 43.71293 | 7.54688 | 38029 ft | 485 kts | 53° |
| 2026-05-04 17:01 | 43.81019 | 7.73645 | 38053 ft | 482 kts | 48° |
| 2026-05-04 17:01 | 43.85825 | 7.79947 | 38075 ft | 473 kts | 32° |
| 2026-05-04 17:02 | 43.91110 | 7.85399 | 38089 ft | 473 kts | 32° |
| 2026-05-04 17:02 | 43.96545 | 7.90435 | 38097 ft | 465 kts | 20° |
| 2026-05-04 17:03 | 43.99476 | 7.92098 | 38106 ft | 459 kts | 14° |
| 2026-05-04 17:03 | 44.08491 | 7.96474 | 38105 ft | 458 kts | 13° |
| 2026-05-04 17:04 | 44.20525 | 8.02411 | 38103 ft | 460 kts | 14° |
| 2026-05-04 17:05 | 44.32632 | 8.08512 | 38093 ft | 464 kts | 14° |
| 2026-05-04 17:06 | 44.41750 | 8.13124 | 38072 ft | 464 kts | 14° |
| 2026-05-04 17:07 | 44.49822 | 8.17220 | 38061 ft | 463 kts | 14° |
| 2026-05-04 17:07 | 44.56860 | 8.20797 | 38096 ft | 458 kts | 14° |
| 2026-05-04 17:08 | 44.65841 | 8.25378 | 38071 ft | 457 kts | 13° |
| 2026-05-04 17:09 | 44.71820 | 8.28438 | 38077 ft | 456 kts | 14° |
| 2026-05-04 17:09 | 44.77748 | 8.31476 | 38075 ft | 456 kts | 14° |
| 2026-05-04 17:10 | 44.92700 | 8.39168 | 38072 ft | 459 kts | 14° |
| 2026-05-04 17:11 | 44.98709 | 8.42271 | 38076 ft | 460 kts | 14° |
| 2026-05-04 17:12 | 45.07752 | 8.46956 | 38078 ft | 461 kts | 14° |
| 2026-05-04 17:13 | 45.22841 | 8.54809 | 38051 ft | 462 kts | 14° |
| 2026-05-04 17:14 | 45.34883 | 8.61108 | 38051 ft | 462 kts | 14° |
| 2026-05-04 17:15 | 45.43930 | 8.65859 | 38050 ft | 462 kts | 14° |
| 2026-05-04 17:16 | 45.55969 | 8.72207 | 38076 ft | 460 kts | 15° |
| 2026-05-04 17:17 | 45.67976 | 8.78566 | 38083 ft | 459 kts | 15° |
| 2026-05-04 17:18 | 45.78902 | 8.84379 | 38073 ft | 459 kts | 15° |
| 2026-05-04 17:19 | 45.90848 | 8.90762 | 38085 ft | 458 kts | 15° |
| 2026-05-04 17:20 | 46.02765 | 8.97160 | 38083 ft | 456 kts | 16° |
| 2026-05-04 17:20 | 46.11655 | 9.01950 | 38059 ft | 457 kts | 16° |
| 2026-05-04 17:21 | 46.17751 | 9.04173 | 38068 ft | 448 kts | 1° |
| 2026-05-04 17:21 | 46.23929 | 9.04144 | 38060 ft | 443 kts | 353° |
| 2026-05-04 17:22 | 46.30098 | 9.03775 | 38070 ft | 444 kts | 353° |
| 2026-05-04 17:23 | 46.42465 | 9.03151 | 38083 ft | 445 kts | 354° |
| 2026-05-04 17:24 | 46.51713 | 9.02748 | 38060 ft | 443 kts | 353° |
| 2026-05-04 17:25 | 46.63977 | 9.02214 | 38122 ft | 445 kts | 355° |
| 2026-05-04 17:26 | 46.76522 | 9.01655 | 38055 ft | 454 kts | 355° |
| 2026-05-04 17:27 | 46.92336 | 9.00957 | 38020 ft | 455 kts | 355° |
| 2026-05-04 17:28 | 47.04914 | 9.00399 | 38026 ft | 448 kts | 355° |
| 2026-05-04 17:29 | 47.23603 | 8.99561 | 37993 ft | 449 kts | 355° |
| 2026-05-04 17:31 | 47.38202 | 8.98902 | 37982 ft | 451 kts | 355° |
| 2026-05-04 17:32 | 47.53928 | 8.98189 | 37988 ft | 453 kts | 355° |
| 2026-05-04 17:33 | 47.66537 | 8.97615 | 37974 ft | 454 kts | 355° |
| 2026-05-04 17:34 | 47.79128 | 8.97038 | 37969 ft | 454 kts | 355° |
| 2026-05-04 17:35 | 47.94963 | 8.96308 | 37964 ft | 456 kts | 355° |
| 2026-05-04 17:36 | 48.01285 | 8.96017 | 37960 ft | 449 kts | 355° |
| 2026-05-04 17:36 | 48.04349 | 8.95878 | 37947 ft | 434 kts | 355° |
| 2026-05-04 17:36 | 48.07319 | 8.95742 | 37946 ft | 419 kts | 355° |
| 2026-05-04 17:36 | 48.10185 | 8.95610 | 37937 ft | 405 kts | 355° |
| 2026-05-04 17:37 | 48.12956 | 8.95481 | 37949 ft | 392 kts | 355° |
| 2026-05-04 17:37 | 48.18330 | 8.95412 | 37978 ft | 390 kts | 1° |
| 2026-05-04 17:38 | 48.23852 | 8.96250 | 37993 ft | 408 kts | 4° |
| 2026-05-04 17:38 | 48.29501 | 8.97217 | 37549 ft | 406 kts | 4° |
| 2026-05-04 17:38 | 48.32330 | 8.97672 | 36705 ft | 412 kts | 4° |
| 2026-05-04 17:39 | 48.38185 | 8.98571 | 34060 ft | 441 kts | 4° |
| 2026-05-04 17:39 | 48.41275 | 8.99042 | 32795 ft | 449 kts | 4° |
| 2026-05-04 17:39 | 48.44388 | 8.99520 | 31952 ft | 448 kts | 4° |
| 2026-05-04 17:40 | 48.47487 | 8.99997 | 31521 ft | 443 kts | 4° |
| 2026-05-04 17:40 | 48.50543 | 9.00468 | 31149 ft | 437 kts | 4° |
| 2026-05-04 17:40 | 48.53520 | 9.00926 | 30723 ft | 433 kts | 3° |
| 2026-05-04 17:40 | 48.56513 | 9.01386 | 30233 ft | 431 kts | 3° |
| 2026-05-04 17:41 | 48.59504 | 9.01845 | 29703 ft | 430 kts | 3° |
| 2026-05-04 17:41 | 48.62474 | 9.02304 | 29223 ft | 425 kts | 4° |
| 2026-05-04 17:41 | 48.65362 | 9.02857 | 28766 ft | 422 kts | 6° |
| 2026-05-04 17:41 | 48.68253 | 9.03545 | 28282 ft | 418 kts | 7° |
| 2026-05-04 17:42 | 48.71124 | 9.04270 | 27800 ft | 415 kts | 7° |
| 2026-05-04 17:42 | 48.73978 | 9.04989 | 27323 ft | 412 kts | 7° |
| 2026-05-04 17:42 | 48.76776 | 9.05678 | 26866 ft | 409 kts | 7° |
| 2026-05-04 17:42 | 48.79542 | 9.06348 | 26438 ft | 406 kts | 7° |
| 2026-05-04 17:43 | 48.82354 | 9.07021 | 25995 ft | 403 kts | 6° |
| 2026-05-04 17:43 | 48.85131 | 9.07685 | 25556 ft | 400 kts | 7° |
| 2026-05-04 17:43 | 48.87877 | 9.08342 | 25135 ft | 397 kts | 6° |
| 2026-05-04 17:43 | 48.90592 | 9.08867 | 24705 ft | 394 kts | 3° |
| 2026-05-04 17:44 | 48.93323 | 9.09228 | 24293 ft | 391 kts | 2° |
| 2026-05-04 17:44 | 48.96003 | 9.09560 | 23892 ft | 389 kts | 2° |
| 2026-05-04 17:44 | 48.98704 | 9.09920 | 23490 ft | 387 kts | 3° |
| 2026-05-04 17:44 | 49.01384 | 9.10297 | 23028 ft | 384 kts | 3° |
| 2026-05-04 17:45 | 49.04009 | 9.10672 | 22602 ft | 381 kts | 3° |
| 2026-05-04 17:45 | 49.06646 | 9.11050 | 22184 ft | 378 kts | 3° |
| 2026-05-04 17:45 | 49.09264 | 9.11424 | 21766 ft | 375 kts | 3° |
| 2026-05-04 17:45 | 49.11851 | 9.11794 | 21357 ft | 372 kts | 3° |
| 2026-05-04 17:46 | 49.14383 | 9.12157 | 20949 ft | 369 kts | 4° |
| 2026-05-04 17:46 | 49.16942 | 9.12523 | 20550 ft | 366 kts | 4° |
| 2026-05-04 17:46 | 49.19474 | 9.12885 | 20164 ft | 363 kts | 4° |
| 2026-05-04 17:46 | 49.21993 | 9.13246 | 19782 ft | 361 kts | 4° |
| 2026-05-04 17:47 | 49.24487 | 9.13604 | 19393 ft | 358 kts | 4° |
| 2026-05-04 17:47 | 49.26934 | 9.13955 | 19019 ft | 355 kts | 4° |
| 2026-05-04 17:47 | 49.29398 | 9.14384 | 18644 ft | 354 kts | 8° |
| 2026-05-04 17:47 | 49.31807 | 9.15149 | 18281 ft | 351 kts | 12° |
| 2026-05-04 17:48 | 49.34143 | 9.16031 | 17870 ft | 349 kts | 13° |
| 2026-05-04 17:48 | 49.36499 | 9.16938 | 17446 ft | 347 kts | 13° |
| 2026-05-04 17:48 | 49.38058 | 9.17528 | 17160 ft | 346 kts | 12° |
| 2026-05-04 17:48 | 49.41189 | 9.18682 | 16624 ft | 343 kts | 12° |
| 2026-05-04 17:49 | 49.43482 | 9.19509 | 16229 ft | 341 kts | 12° |
| 2026-05-04 17:49 | 49.45792 | 9.20333 | 15833 ft | 339 kts | 11° |
| 2026-05-04 17:49 | 49.48075 | 9.21146 | 15433 ft | 337 kts | 11° |
| 2026-05-04 17:49 | 49.50369 | 9.21962 | 15049 ft | 335 kts | 12° |
| 2026-05-04 17:50 | 49.52606 | 9.22759 | 14665 ft | 333 kts | 11° |
| 2026-05-04 17:50 | 49.54864 | 9.23564 | 14289 ft | 332 kts | 11° |
| 2026-05-04 17:50 | 49.57115 | 9.24368 | 13910 ft | 330 kts | 11° |
| 2026-05-04 17:50 | 49.59345 | 9.25165 | 13518 ft | 328 kts | 11° |
| 2026-05-04 17:51 | 49.61574 | 9.25962 | 13104 ft | 327 kts | 12° |
| 2026-05-04 17:51 | 49.63748 | 9.26741 | 12681 ft | 325 kts | 12° |
| 2026-05-04 17:51 | 49.65968 | 9.27536 | 12278 ft | 324 kts | 12° |
| 2026-05-04 17:51 | 49.68164 | 9.28324 | 11901 ft | 322 kts | 12° |
| 2026-05-04 17:52 | 49.70319 | 9.29104 | 11486 ft | 321 kts | 11° |
| 2026-05-04 17:52 | 49.72512 | 9.29184 | 11194 ft | 312 kts | 348° |
| 2026-05-04 17:52 | 49.74609 | 9.28523 | 11050 ft | 301 kts | 344° |
| 2026-05-04 17:52 | 49.76597 | 9.27802 | 10872 ft | 294 kts | 344° |
| 2026-05-04 17:53 | 49.78586 | 9.27068 | 10553 ft | 293 kts | 343° |
| 2026-05-04 17:53 | 49.80572 | 9.26330 | 10219 ft | 292 kts | 343° |
| 2026-05-04 17:53 | 49.82546 | 9.25594 | 9923 ft | 291 kts | 343° |
| 2026-05-04 17:53 | 49.84484 | 9.24869 | 9635 ft | 289 kts | 343° |
| 2026-05-04 17:54 | 49.86437 | 9.24137 | 9292 ft | 288 kts | 343° |
| 2026-05-04 17:54 | 49.88360 | 9.23414 | 9191 ft | 283 kts | 343° |
| 2026-05-04 17:54 | 49.90270 | 9.22693 | 9097 ft | 282 kts | 344° |
| 2026-05-04 17:54 | 49.92177 | 9.21964 | 9073 ft | 283 kts | 343° |
| 2026-05-04 17:55 | 49.94101 | 9.21225 | 9039 ft | 288 kts | 343° |
| 2026-05-04 17:55 | 49.96057 | 9.20471 | 9022 ft | 289 kts | 343° |
| 2026-05-04 17:55 | 49.98006 | 9.19721 | 9021 ft | 288 kts | 343° |
| 2026-05-04 17:55 | 49.99952 | 9.18976 | 9020 ft | 287 kts | 343° |
| 2026-05-04 17:56 | 50.01907 | 9.18221 | 8558 ft | 299 kts | 343° |
| 2026-05-04 17:56 | 50.03940 | 9.17424 | 8121 ft | 300 kts | 344° |
| 2026-05-04 17:56 | 50.05972 | 9.16616 | 7680 ft | 298 kts | 344° |
| 2026-05-04 17:56 | 50.07950 | 9.15816 | 7110 ft | 296 kts | 344° |
| 2026-05-04 17:57 | 50.09944 | 9.14994 | 6544 ft | 294 kts | 344° |
| 2026-05-04 17:57 | 50.11920 | 9.14164 | 5959 ft | 291 kts | 343° |
| 2026-05-04 17:57 | 50.13850 | 9.13343 | 5395 ft | 289 kts | 343° |
| 2026-05-04 17:57 | 50.15722 | 9.12282 | 4797 ft | 285 kts | 326° |
| 2026-05-04 17:58 | 50.17008 | 9.10001 | 4260 ft | 279 kts | 292° |
| 2026-05-04 17:58 | 50.17227 | 9.07129 | 4074 ft | 262 kts | 258° |
| 2026-05-04 17:58 | 50.16435 | 9.04702 | 4024 ft | 251 kts | 232° |
| 2026-05-04 17:58 | 50.15398 | 9.02504 | 4011 ft | 251 kts | 237° |
| 2026-05-04 17:59 | 50.14474 | 9.00161 | 4005 ft | 255 kts | 240° |
| 2026-05-04 17:59 | 50.13621 | 8.97744 | 4005 ft | 256 kts | 242° |
| 2026-05-04 17:59 | 50.12212 | 8.92710 | 3986 ft | 250 kts | 249° |
| 2026-05-04 18:00 | 50.11612 | 8.90235 | 3981 ft | 236 kts | 249° |
| 2026-05-04 18:00 | 50.11050 | 8.87899 | 3975 ft | 223 kts | 249° |
| 2026-05-04 18:00 | 50.10527 | 8.85732 | 3918 ft | 208 kts | 249° |
| 2026-05-04 18:00 | 50.10034 | 8.83692 | 3724 ft | 194 kts | 249° |
| 2026-05-04 18:01 | 50.09571 | 8.81782 | 3483 ft | 183 kts | 249° |
| 2026-05-04 18:01 | 50.09132 | 8.79962 | 3249 ft | 175 kts | 250° |
| 2026-05-04 18:01 | 50.08707 | 8.78204 | 3020 ft | 176 kts | 250° |
| 2026-05-04 18:02 | 50.07827 | 8.74555 | 2540 ft | 181 kts | 251° |
| 2026-05-04 18:02 | 50.07396 | 8.72767 | 2296 ft | 171 kts | 251° |
| 2026-05-04 18:02 | 50.06987 | 8.71069 | 2064 ft | 165 kts | 251° |
| 2026-05-04 18:02 | 50.06598 | 8.69454 | 1841 ft | 157 kts | 251° |
| 2026-05-04 18:03 | 50.06227 | 8.67910 | 1700 ft | 150 kts | 252° |
| 2026-05-04 18:03 | 50.05873 | 8.66443 | 1455 ft | 137 kts | 251° |
| 2026-05-04 18:03 | 50.05531 | 8.65104 | 1293 ft | 132 kts | 251° |
| 2026-05-04 18:03 | 50.05222 | 8.63750 | 1131 ft | 132 kts | 253° |
| 2026-05-04 18:04 | 50.04901 | 8.62420 | 955 ft | 130 kts | 252° |
| 2026-05-04 18:04 | 50.04595 | 8.61133 | 749 ft | 127 kts | 252° |
| 2026-05-04 18:04 | 50.03959 | 8.58469 | 411 ft | 134 kts | 251° |
| 2026-05-04 18:05 | 50.03664 | 8.57217 | 359 ft | 108 kts | 249° |
| 2026-05-04 18:05 | 50.03460 | 8.56366 | 357 ft | 55 kts | 250° |
| 2026-05-04 18:05 | 50.03444 | 8.55986 | 345 ft | 26 kts | 277° |
| 2026-05-04 18:05 | 50.03470 | 8.55757 | 343 ft | 18 kts | 279° |
| 2026-05-04 18:06 | 50.03493 | 8.55564 | 354 ft | 0 kts | 292° |
| 2026-05-04 18:06 | 50.03498 | 8.55563 | 354 ft | 2 kts | 341° |
| 2026-05-04 18:06 | 50.03520 | 8.55600 | 353 ft | 9 kts | 66° |
| 2026-05-04 18:07 | 50.03555 | 8.55737 | 350 ft | 19 kts | 69° |
| 2026-05-04 18:07 | 50.03610 | 8.55969 | 356 ft | 26 kts | 70° |
| 2026-05-04 18:07 | 50.03672 | 8.56228 | 354 ft | 24 kts | 70° |
| 2026-05-04 18:07 | 50.03734 | 8.56489 | 353 ft | 30 kts | 70° |
| 2026-05-04 18:08 | 50.03804 | 8.56780 | 355 ft | 28 kts | 69° |
| 2026-05-04 18:08 | 50.03870 | 8.57050 | 361 ft | 26 kts | 69° |
| 2026-05-04 18:08 | 50.03931 | 8.57301 | 365 ft | 24 kts | 69° |
| 2026-05-04 18:08 | 50.03984 | 8.57535 | 368 ft | 23 kts | 70° |
| 2026-05-04 18:09 | 50.04103 | 8.58030 | 369 ft | 29 kts | 69° |
| 2026-05-04 18:09 | 50.04217 | 8.58505 | 370 ft | 27 kts | 69° |
| 2026-05-04 18:10 | 50.04290 | 8.58805 | 371 ft | 31 kts | 69° |
| 2026-05-04 18:10 | 50.04367 | 8.59129 | 376 ft | 33 kts | 69° |
| 2026-05-04 18:10 | 50.04429 | 8.59385 | 375 ft | 19 kts | 69° |
| 2026-05-04 18:10 | 50.04501 | 8.59474 | 373 ft | 13 kts | 355° |
| 2026-05-04 18:11 | 50.04588 | 8.59466 | 372 ft | 13 kts | 356° |
| 2026-05-04 18:11 | 50.04679 | 8.59450 | 371 ft | 13 kts | 348° |
| 2026-05-04 18:11 | 50.04770 | 8.59404 | 371 ft | 14 kts | 340° |
| 2026-05-04 18:11 | 50.04814 | 8.59374 | 370 ft | 1 kts | 328° |
| 2026-05-04 18:12 | 50.04818 | 8.59370 | 370 ft | 0 kts | 327° |
| 2026-05-04 18:12 | 50.04819 | 8.59370 | 370 ft | 1 kts | 333° |
| 2026-05-04 18:12 | 50.04870 | 8.59362 | 369 ft | 12 kts | 7° |
| 2026-05-04 18:13 | 50.04965 | 8.59358 | 367 ft | 15 kts | 337° |
| 2026-05-04 18:13 | 50.05072 | 8.59279 | 361 ft | 18 kts | 315° |
| 2026-05-04 18:13 | 50.05044 | 8.59036 | 364 ft | 11 kts | 271° |
| 2026-05-04 18:14 | 50.05073 | 8.59001 | 360 ft | 6 kts | 341° |
| 2026-05-04 18:14 | 50.05114 | 8.58978 | 360 ft | 6 kts | 340° |
| 2026-05-04 18:14 | 50.05135 | 8.58966 | 362 ft | 0 kts | 340° |